sensor_id;sensor_type;location;lat;lon;timestamp;temperature;humidity
20658;DHT22;10488;50.846;4.078;2023-04-15T00:00:41;10.10;99.90
20658;DHT22;10488;50.846;4.078;2023-04-15T00:03:06;10.30;99.90
20658;DHT22;10488;50.846;4.078;2023-04-15T00:05:33;10.40;99.90
20658;DHT22;10488;50.846;4.078;2023-04-15T00:08:00;10.00;99.90
20658;DHT22;10488;50.846;4.078;2023-04-15T00:10:26;10.00;99.90
20658;DHT22;10488;50.846;4.078;2023-04-15T00:12:52;10.10;99.90
20658;DHT22;10488;50.846;4.078;2023-04-15T00:15:18;10.20;99.90
20658;DHT22;10488;50.846;4.078;2023-04-15T00:17:43;10.30;99.90
20658;DHT22;10488;50.846;4.078;2023-04-15T00:20:09;10.10;99.90
20658;DHT22;10488;50.846;4.078;2023-04-15T00:22:35;10.10;99.90
20658;DHT22;10488;50.846;4.078;2023-04-15T00:25:02;10.30;99.90
20658;DHT22;10488;50.846;4.078;2023-04-15T00:27:28;10.30;99.90
20658;DHT22;10488;50.846;4.078;2023-04-15T00:29:54;9.90;99.90
20658;DHT22;10488;50.846;4.078;2023-04-15T00:32:20;9.90;99.90
20658;DHT22;10488;50.846;4.078;2023-04-15T00:34:46;9.90;99.90
20658;DHT22;10488;50.846;4.078;2023-04-15T00:37:12;10.10;99.90
20658;DHT22;10488;50.846;4.078;2023-04-15T00:39:37;10.00;99.90
20658;DHT22;10488;50.846;4.078;2023-04-15T00:42:04;9.90;99.90
20658;DHT22;10488;50.846;4.078;2023-04-15T00:44:30;9.80;99.90
20658;DHT22;10488;50.846;4.078;2023-04-15T00:46:56;9.60;99.90
20658;DHT22;10488;50.846;4.078;2023-04-15T00:49:23;9.70;99.90
20658;DHT22;10488;50.846;4.078;2023-04-15T00:51:49;9.80;99.90
20658;DHT22;10488;50.846;4.078;2023-04-15T00:54:15;9.80;99.90
20658;DHT22;10488;50.846;4.078;2023-04-15T00:56:41;9.70;99.90
20658;DHT22;10488;50.846;4.078;2023-04-15T00:59:07;9.80;99.90
20658;DHT22;10488;50.846;4.078;2023-04-15T01:01:36;10.00;99.90
20658;DHT22;10488;50.846;4.078;2023-04-15T01:04:03;10.20;99.90
20658;DHT22;10488;50.846;4.078;2023-04-15T01:06:30;10.00;99.90
20658;DHT22;10488;50.846;4.078;2023-04-15T01:08:57;9.90;99.90
20658;DHT22;10488;50.846;4.078;2023-04-15T01:11:22;10.00;99.90
20658;DHT22;10488;50.846;4.078;2023-04-15T01:13:49;10.10;99.90
20658;DHT22;10488;50.846;4.078;2023-04-15T01:16:15;10.30;99.90
20658;DHT22;10488;50.846;4.078;2023-04-15T01:18:41;10.20;99.90
20658;DHT22;10488;50.846;4.078;2023-04-15T01:21:07;10.00;99.90
20658;DHT22;10488;50.846;4.078;2023-04-15T01:23:35;9.60;99.90
20658;DHT22;10488;50.846;4.078;2023-04-15T01:26:03;9.90;99.90
20658;DHT22;10488;50.846;4.078;2023-04-15T01:28:29;10.00;99.90
20658;DHT22;10488;50.846;4.078;2023-04-15T01:31:09;10.00;99.90
20658;DHT22;10488;50.846;4.078;2023-04-15T01:33:36;9.70;99.90
20658;DHT22;10488;50.846;4.078;2023-04-15T01:36:03;9.70;99.90
20658;DHT22;10488;50.846;4.078;2023-04-15T01:38:30;9.80;99.90
20658;DHT22;10488;50.846;4.078;2023-04-15T01:40:56;9.90;99.90
20658;DHT22;10488;50.846;4.078;2023-04-15T01:43:22;9.90;99.90
20658;DHT22;10488;50.846;4.078;2023-04-15T01:45:48;9.70;99.90
20658;DHT22;10488;50.846;4.078;2023-04-15T01:48:14;9.60;99.90
20658;DHT22;10488;50.846;4.078;2023-04-15T01:50:40;9.70;99.90
20658;DHT22;10488;50.846;4.078;2023-04-15T01:53:05;9.80;99.90
20658;DHT22;10488;50.846;4.078;2023-04-15T01:55:31;9.80;99.90
20658;DHT22;10488;50.846;4.078;2023-04-15T01:57:56;9.40;99.90
20658;DHT22;10488;50.846;4.078;2023-04-15T02:00:22;9.50;99.90
20658;DHT22;10488;50.846;4.078;2023-04-15T02:02:48;9.60;99.90
20658;DHT22;10488;50.846;4.078;2023-04-15T02:05:14;9.20;99.90
20658;DHT22;10488;50.846;4.078;2023-04-15T02:07:41;9.10;99.90
20658;DHT22;10488;50.846;4.078;2023-04-15T02:10:08;9.40;99.90
20658;DHT22;10488;50.846;4.078;2023-04-15T02:12:35;9.60;99.90
20658;DHT22;10488;50.846;4.078;2023-04-15T02:15:01;9.70;99.90
20658;DHT22;10488;50.846;4.078;2023-04-15T02:17:27;9.70;99.90
20658;DHT22;10488;50.846;4.078;2023-04-15T02:19:54;9.70;99.90
20658;DHT22;10488;50.846;4.078;2023-04-15T02:22:20;9.70;99.90
20658;DHT22;10488;50.846;4.078;2023-04-15T02:24:46;9.70;99.90
20658;DHT22;10488;50.846;4.078;2023-04-15T02:27:16;9.90;99.90
20658;DHT22;10488;50.846;4.078;2023-04-15T02:29:43;9.80;99.90
20658;DHT22;10488;50.846;4.078;2023-04-15T02:32:10;9.80;99.90
20658;DHT22;10488;50.846;4.078;2023-04-15T02:34:37;9.50;99.90
20658;DHT22;10488;50.846;4.078;2023-04-15T02:37:06;9.30;99.90
20658;DHT22;10488;50.846;4.078;2023-04-15T02:39:32;9.00;99.90
20658;DHT22;10488;50.846;4.078;2023-04-15T02:41:58;8.90;99.90
20658;DHT22;10488;50.846;4.078;2023-04-15T02:44:25;8.90;99.90
20658;DHT22;10488;50.846;4.078;2023-04-15T02:46:52;8.80;99.90
20658;DHT22;10488;50.846;4.078;2023-04-15T02:49:19;8.90;99.90
20658;DHT22;10488;50.846;4.078;2023-04-15T02:51:45;9.10;99.90
20658;DHT22;10488;50.846;4.078;2023-04-15T02:54:16;9.20;99.90
20658;DHT22;10488;50.846;4.078;2023-04-15T02:56:42;9.40;99.90
20658;DHT22;10488;50.846;4.078;2023-04-15T02:59:07;9.50;99.90
20658;DHT22;10488;50.846;4.078;2023-04-15T03:01:33;9.60;99.90
20658;DHT22;10488;50.846;4.078;2023-04-15T03:03:59;9.70;99.90
20658;DHT22;10488;50.846;4.078;2023-04-15T03:06:24;9.60;99.90
20658;DHT22;10488;50.846;4.078;2023-04-15T03:08:50;9.40;99.90
20658;DHT22;10488;50.846;4.078;2023-04-15T03:11:16;9.30;99.90
20658;DHT22;10488;50.846;4.078;2023-04-15T03:13:42;9.30;99.90
20658;DHT22;10488;50.846;4.078;2023-04-15T03:16:08;9.50;99.90
20658;DHT22;10488;50.846;4.078;2023-04-15T03:18:34;9.40;99.90
20658;DHT22;10488;50.846;4.078;2023-04-15T03:21:00;9.20;99.90
20658;DHT22;10488;50.846;4.078;2023-04-15T03:23:25;9.30;99.90
20658;DHT22;10488;50.846;4.078;2023-04-15T03:25:51;9.50;99.90
20658;DHT22;10488;50.846;4.078;2023-04-15T03:28:20;9.60;99.90
20658;DHT22;10488;50.846;4.078;2023-04-15T03:30:45;9.70;99.90
20658;DHT22;10488;50.846;4.078;2023-04-15T03:33:11;9.80;99.90
20658;DHT22;10488;50.846;4.078;2023-04-15T03:35:37;9.80;99.90
20658;DHT22;10488;50.846;4.078;2023-04-15T03:38:02;10.00;99.90
20658;DHT22;10488;50.846;4.078;2023-04-15T03:40:28;9.60;99.90
20658;DHT22;10488;50.846;4.078;2023-04-15T03:42:54;9.50;99.90
20658;DHT22;10488;50.846;4.078;2023-04-15T03:45:20;9.30;99.90
20658;DHT22;10488;50.846;4.078;2023-04-15T03:47:45;9.30;99.90
20658;DHT22;10488;50.846;4.078;2023-04-15T03:50:11;9.30;99.90
20658;DHT22;10488;50.846;4.078;2023-04-15T03:52:37;9.40;99.90
20658;DHT22;10488;50.846;4.078;2023-04-15T03:55:02;9.50;99.90
20658;DHT22;10488;50.846;4.078;2023-04-15T03:57:28;9.80;99.90
20658;DHT22;10488;50.846;4.078;2023-04-15T03:59:54;9.90;99.90
20658;DHT22;10488;50.846;4.078;2023-04-15T04:02:19;9.90;99.90
20658;DHT22;10488;50.846;4.078;2023-04-15T04:04:45;9.80;99.90
20658;DHT22;10488;50.846;4.078;2023-04-15T04:07:17;9.80;99.90
20658;DHT22;10488;50.846;4.078;2023-04-15T04:09:43;10.00;99.90
20658;DHT22;10488;50.846;4.078;2023-04-15T04:12:08;9.70;99.90
20658;DHT22;10488;50.846;4.078;2023-04-15T04:14:34;9.40;99.90
20658;DHT22;10488;50.846;4.078;2023-04-15T04:17:00;9.40;99.90
20658;DHT22;10488;50.846;4.078;2023-04-15T04:19:25;9.30;99.90
20658;DHT22;10488;50.846;4.078;2023-04-15T04:21:51;9.30;99.90
20658;DHT22;10488;50.846;4.078;2023-04-15T04:24:17;9.30;99.90
20658;DHT22;10488;50.846;4.078;2023-04-15T04:26:43;9.20;99.90
20658;DHT22;10488;50.846;4.078;2023-04-15T04:29:08;9.20;99.90
20658;DHT22;10488;50.846;4.078;2023-04-15T04:31:34;9.40;99.90
20658;DHT22;10488;50.846;4.078;2023-04-15T04:34:00;9.10;99.90
20658;DHT22;10488;50.846;4.078;2023-04-15T04:36:25;9.20;99.90
20658;DHT22;10488;50.846;4.078;2023-04-15T04:38:51;9.20;99.90
20658;DHT22;10488;50.846;4.078;2023-04-15T04:41:17;9.30;99.90
20658;DHT22;10488;50.846;4.078;2023-04-15T04:43:42;9.50;99.90
20658;DHT22;10488;50.846;4.078;2023-04-15T04:46:08;9.30;99.90
20658;DHT22;10488;50.846;4.078;2023-04-15T04:48:35;9.40;99.90
20658;DHT22;10488;50.846;4.078;2023-04-15T04:51:01;9.40;99.90
20658;DHT22;10488;50.846;4.078;2023-04-15T04:53:27;9.20;99.90
20658;DHT22;10488;50.846;4.078;2023-04-15T04:55:52;9.10;99.90
20658;DHT22;10488;50.846;4.078;2023-04-15T04:58:18;9.20;99.90
20658;DHT22;10488;50.846;4.078;2023-04-15T05:00:44;9.20;99.90
20658;DHT22;10488;50.846;4.078;2023-04-15T05:03:10;9.20;99.90
20658;DHT22;10488;50.846;4.078;2023-04-15T05:05:35;9.20;99.90
20658;DHT22;10488;50.846;4.078;2023-04-15T05:08:04;9.20;99.90
20658;DHT22;10488;50.846;4.078;2023-04-15T05:10:30;9.20;99.90
20658;DHT22;10488;50.846;4.078;2023-04-15T05:12:56;9.10;99.90
20658;DHT22;10488;50.846;4.078;2023-04-15T05:15:22;9.20;99.90
20658;DHT22;10488;50.846;4.078;2023-04-15T05:17:47;9.40;99.90
20658;DHT22;10488;50.846;4.078;2023-04-15T05:20:13;9.30;99.90
20658;DHT22;10488;50.846;4.078;2023-04-15T05:22:40;9.50;99.90
20658;DHT22;10488;50.846;4.078;2023-04-15T05:25:05;9.50;99.90
20658;DHT22;10488;50.846;4.078;2023-04-15T05:27:31;9.40;99.90
20658;DHT22;10488;50.846;4.078;2023-04-15T05:29:57;9.40;99.90
20658;DHT22;10488;50.846;4.078;2023-04-15T05:32:22;9.20;99.90
20658;DHT22;10488;50.846;4.078;2023-04-15T05:34:48;9.30;99.90
20658;DHT22;10488;50.846;4.078;2023-04-15T05:37:14;9.50;99.90
20658;DHT22;10488;50.846;4.078;2023-04-15T05:39:39;9.40;99.90
20658;DHT22;10488;50.846;4.078;2023-04-15T05:42:05;9.50;99.90
20658;DHT22;10488;50.846;4.078;2023-04-15T05:44:31;9.50;99.90
20658;DHT22;10488;50.846;4.078;2023-04-15T05:46:56;9.50;99.90
20658;DHT22;10488;50.846;4.078;2023-04-15T05:49:22;9.50;99.90
20658;DHT22;10488;50.846;4.078;2023-04-15T05:51:48;9.50;99.90
20658;DHT22;10488;50.846;4.078;2023-04-15T05:54:14;9.60;99.90
20658;DHT22;10488;50.846;4.078;2023-04-15T05:56:39;9.40;99.90
20658;DHT22;10488;50.846;4.078;2023-04-15T05:59:05;9.40;99.90
20658;DHT22;10488;50.846;4.078;2023-04-15T06:01:32;9.60;99.90
20658;DHT22;10488;50.846;4.078;2023-04-15T06:03:58;9.90;99.90
20658;DHT22;10488;50.846;4.078;2023-04-15T06:06:24;9.70;99.90
20658;DHT22;10488;50.846;4.078;2023-04-15T06:08:51;9.70;99.90
20658;DHT22;10488;50.846;4.078;2023-04-15T06:11:19;9.60;99.90
20658;DHT22;10488;50.846;4.078;2023-04-15T06:13:45;9.80;99.90
20658;DHT22;10488;50.846;4.078;2023-04-15T06:16:11;9.90;99.90
20658;DHT22;10488;50.846;4.078;2023-04-15T06:18:36;10.00;99.90
20658;DHT22;10488;50.846;4.078;2023-04-15T06:21:03;9.90;99.90
20658;DHT22;10488;50.846;4.078;2023-04-15T06:23:29;10.20;99.90
20658;DHT22;10488;50.846;4.078;2023-04-15T06:25:54;10.30;99.90
20658;DHT22;10488;50.846;4.078;2023-04-15T06:28:20;10.10;99.90
20658;DHT22;10488;50.846;4.078;2023-04-15T06:30:46;10.00;99.90
20658;DHT22;10488;50.846;4.078;2023-04-15T06:33:11;9.80;99.90
20658;DHT22;10488;50.846;4.078;2023-04-15T06:35:37;10.10;99.90
20658;DHT22;10488;50.846;4.078;2023-04-15T06:38:03;10.50;99.90
20658;DHT22;10488;50.846;4.078;2023-04-15T06:40:29;10.60;99.90
20658;DHT22;10488;50.846;4.078;2023-04-15T06:42:55;10.80;99.90
20658;DHT22;10488;50.846;4.078;2023-04-15T06:45:21;11.30;99.90
20658;DHT22;10488;50.846;4.078;2023-04-15T06:47:46;12.00;99.90
20658;DHT22;10488;50.846;4.078;2023-04-15T06:50:12;12.10;99.90
20658;DHT22;10488;50.846;4.078;2023-04-15T06:52:38;11.50;99.90
20658;DHT22;10488;50.846;4.078;2023-04-15T06:55:04;11.70;99.90
20658;DHT22;10488;50.846;4.078;2023-04-15T06:57:29;11.90;99.90
20658;DHT22;10488;50.846;4.078;2023-04-15T06:59:55;12.20;99.90
20658;DHT22;10488;50.846;4.078;2023-04-15T07:02:21;12.40;99.90
20658;DHT22;10488;50.846;4.078;2023-04-15T07:04:46;12.20;99.90
20658;DHT22;10488;50.846;4.078;2023-04-15T07:07:13;11.80;99.90
20658;DHT22;10488;50.846;4.078;2023-04-15T07:09:39;11.40;99.90
20658;DHT22;10488;50.846;4.078;2023-04-15T07:12:05;11.60;99.90
20658;DHT22;10488;50.846;4.078;2023-04-15T07:14:30;11.40;99.90
20658;DHT22;10488;50.846;4.078;2023-04-15T07:16:56;11.10;99.90
20658;DHT22;10488;50.846;4.078;2023-04-15T07:19:22;11.20;99.90
20658;DHT22;10488;50.846;4.078;2023-04-15T07:21:48;11.50;99.90
20658;DHT22;10488;50.846;4.078;2023-04-15T07:24:13;11.50;99.90
20658;DHT22;10488;50.846;4.078;2023-04-15T07:26:43;11.50;99.90
20658;DHT22;10488;50.846;4.078;2023-04-15T07:29:09;11.70;99.90
20658;DHT22;10488;50.846;4.078;2023-04-15T07:31:34;11.90;99.90
20658;DHT22;10488;50.846;4.078;2023-04-15T07:34:01;12.10;99.90
20658;DHT22;10488;50.846;4.078;2023-04-15T07:36:28;12.30;99.90
20658;DHT22;10488;50.846;4.078;2023-04-15T07:38:53;12.50;99.90
20658;DHT22;10488;50.846;4.078;2023-04-15T07:41:20;12.40;99.90
20658;DHT22;10488;50.846;4.078;2023-04-15T07:43:46;12.50;99.90
20658;DHT22;10488;50.846;4.078;2023-04-15T07:46:13;12.90;99.90
20658;DHT22;10488;50.846;4.078;2023-04-15T07:48:39;12.90;99.90
20658;DHT22;10488;50.846;4.078;2023-04-15T07:51:05;12.60;99.90
20658;DHT22;10488;50.846;4.078;2023-04-15T07:53:30;13.00;99.90
20658;DHT22;10488;50.846;4.078;2023-04-15T07:55:57;12.80;99.90
20658;DHT22;10488;50.846;4.078;2023-04-15T07:58:23;12.90;99.90
20658;DHT22;10488;50.846;4.078;2023-04-15T08:00:49;13.30;99.90
20658;DHT22;10488;50.846;4.078;2023-04-15T08:03:15;13.50;99.90
20658;DHT22;10488;50.846;4.078;2023-04-15T08:05:41;13.70;99.90
20658;DHT22;10488;50.846;4.078;2023-04-15T08:08:08;13.90;99.90
20658;DHT22;10488;50.846;4.078;2023-04-15T08:10:34;14.30;99.90
20658;DHT22;10488;50.846;4.078;2023-04-15T08:13:00;14.70;99.90
20658;DHT22;10488;50.846;4.078;2023-04-15T08:15:26;14.60;99.90
20658;DHT22;10488;50.846;4.078;2023-04-15T08:17:52;14.60;99.90
20658;DHT22;10488;50.846;4.078;2023-04-15T08:20:18;14.60;99.90
20658;DHT22;10488;50.846;4.078;2023-04-15T08:22:44;14.10;99.90
20658;DHT22;10488;50.846;4.078;2023-04-15T08:25:10;14.60;99.90
20658;DHT22;10488;50.846;4.078;2023-04-15T08:27:36;14.90;99.90
20658;DHT22;10488;50.846;4.078;2023-04-15T08:30:02;14.90;99.90
20658;DHT22;10488;50.846;4.078;2023-04-15T08:32:28;15.30;99.90
20658;DHT22;10488;50.846;4.078;2023-04-15T08:34:53;15.60;99.90
20658;DHT22;10488;50.846;4.078;2023-04-15T08:37:19;15.70;99.90
20658;DHT22;10488;50.846;4.078;2023-04-15T08:39:45;15.50;99.90
20658;DHT22;10488;50.846;4.078;2023-04-15T08:42:15;16.10;99.90
20658;DHT22;10488;50.846;4.078;2023-04-15T08:44:42;16.30;99.90
20658;DHT22;10488;50.846;4.078;2023-04-15T08:47:12;16.50;99.90
20658;DHT22;10488;50.846;4.078;2023-04-15T08:49:42;16.70;99.90
20658;DHT22;10488;50.846;4.078;2023-04-15T08:52:08;16.80;99.90
20658;DHT22;10488;50.846;4.078;2023-04-15T08:54:34;16.70;99.90
20658;DHT22;10488;50.846;4.078;2023-04-15T08:57:02;16.30;99.90
20658;DHT22;10488;50.846;4.078;2023-04-15T08:59:31;16.30;99.90
20658;DHT22;10488;50.846;4.078;2023-04-15T09:01:57;16.50;99.90
20658;DHT22;10488;50.846;4.078;2023-04-15T09:04:23;16.40;99.90
20658;DHT22;10488;50.846;4.078;2023-04-15T09:06:48;16.30;99.90
20658;DHT22;10488;50.846;4.078;2023-04-15T09:09:14;16.30;99.90
20658;DHT22;10488;50.846;4.078;2023-04-15T09:11:40;16.40;99.90
20658;DHT22;10488;50.846;4.078;2023-04-15T09:14:06;15.90;99.90
20658;DHT22;10488;50.846;4.078;2023-04-15T09:16:59;15.60;99.90
20658;DHT22;10488;50.846;4.078;2023-04-15T09:19:25;15.90;99.90
20658;DHT22;10488;50.846;4.078;2023-04-15T09:21:56;16.00;99.90
20658;DHT22;10488;50.846;4.078;2023-04-15T09:24:22;15.60;99.90
20658;DHT22;10488;50.846;4.078;2023-04-15T09:26:52;14.80;99.90
20658;DHT22;10488;50.846;4.078;2023-04-15T09:29:19;14.90;99.90
20658;DHT22;10488;50.846;4.078;2023-04-15T09:31:44;14.70;99.90
20658;DHT22;10488;50.846;4.078;2023-04-15T09:34:11;14.70;99.90
20658;DHT22;10488;50.846;4.078;2023-04-15T09:39:11;15.60;99.90
20658;DHT22;10488;50.846;4.078;2023-04-15T09:41:37;15.40;99.90
20658;DHT22;10488;50.846;4.078;2023-04-15T09:44:03;15.50;99.90
20658;DHT22;10488;50.846;4.078;2023-04-15T09:46:42;15.80;99.90
20658;DHT22;10488;50.846;4.078;2023-04-15T09:49:09;15.60;99.90
20658;DHT22;10488;50.846;4.078;2023-04-15T09:51:35;15.70;99.90
20658;DHT22;10488;50.846;4.078;2023-04-15T09:54:01;15.40;99.90
20658;DHT22;10488;50.846;4.078;2023-04-15T09:56:38;15.50;99.90
20658;DHT22;10488;50.846;4.078;2023-04-15T09:59:07;15.70;99.90
20658;DHT22;10488;50.846;4.078;2023-04-15T10:01:33;15.70;99.90
20658;DHT22;10488;50.846;4.078;2023-04-15T10:04:03;15.70;99.90
20658;DHT22;10488;50.846;4.078;2023-04-15T10:06:29;15.70;99.90
20658;DHT22;10488;50.846;4.078;2023-04-15T10:08:56;15.80;99.90
20658;DHT22;10488;50.846;4.078;2023-04-15T10:11:23;15.80;99.90
20658;DHT22;10488;50.846;4.078;2023-04-15T10:13:50;15.60;99.90
20658;DHT22;10488;50.846;4.078;2023-04-15T10:16:20;15.70;99.90
20658;DHT22;10488;50.846;4.078;2023-04-15T10:18:55;15.70;99.90
20658;DHT22;10488;50.846;4.078;2023-04-15T10:21:21;15.90;99.90
20658;DHT22;10488;50.846;4.078;2023-04-15T10:23:48;15.90;99.90
20658;DHT22;10488;50.846;4.078;2023-04-15T10:26:15;16.00;99.90
20658;DHT22;10488;50.846;4.078;2023-04-15T10:28:42;16.10;99.90
20658;DHT22;10488;50.846;4.078;2023-04-15T10:31:08;16.30;99.90
20658;DHT22;10488;50.846;4.078;2023-04-15T10:33:36;16.50;99.90
20658;DHT22;10488;50.846;4.078;2023-04-15T10:36:03;16.60;99.90
20658;DHT22;10488;50.846;4.078;2023-04-15T10:43:55;16.50;99.90
20658;DHT22;10488;50.846;4.078;2023-04-15T10:46:33;16.50;99.90
20658;DHT22;10488;50.846;4.078;2023-04-15T10:49:13;16.50;99.90
20658;DHT22;10488;50.846;4.078;2023-04-15T10:51:41;16.40;99.90
20658;DHT22;10488;50.846;4.078;2023-04-15T10:54:15;16.40;99.90
20658;DHT22;10488;50.846;4.078;2023-04-15T10:56:42;16.40;99.90
20658;DHT22;10488;50.846;4.078;2023-04-15T10:59:08;16.50;99.90
20658;DHT22;10488;50.846;4.078;2023-04-15T11:04:55;16.40;99.90
20658;DHT22;10488;50.846;4.078;2023-04-15T11:07:37;16.30;99.90
20658;DHT22;10488;50.846;4.078;2023-04-15T11:12:59;16.20;99.90
20658;DHT22;10488;50.846;4.078;2023-04-15T11:15:36;16.00;99.90
20658;DHT22;10488;50.846;4.078;2023-04-15T11:20:37;16.20;99.90
20658;DHT22;10488;50.846;4.078;2023-04-15T11:23:03;16.20;99.90
20658;DHT22;10488;50.846;4.078;2023-04-15T11:25:31;16.30;99.90
20658;DHT22;10488;50.846;4.078;2023-04-15T11:27:58;16.30;99.90
20658;DHT22;10488;50.846;4.078;2023-04-15T11:30:29;16.40;99.90
20658;DHT22;10488;50.846;4.078;2023-04-15T11:33:08;16.40;99.90
20658;DHT22;10488;50.846;4.078;2023-04-15T11:35:34;16.60;99.90
20658;DHT22;10488;50.846;4.078;2023-04-15T11:38:04;16.60;99.90
20658;DHT22;10488;50.846;4.078;2023-04-15T11:40:30;16.60;99.90
20658;DHT22;10488;50.846;4.078;2023-04-15T11:43:11;16.50;99.90
20658;DHT22;10488;50.846;4.078;2023-04-15T11:48:20;16.50;99.90
20658;DHT22;10488;50.846;4.078;2023-04-15T11:50:52;16.50;99.90
20658;DHT22;10488;50.846;4.078;2023-04-15T11:53:18;16.50;99.90
20658;DHT22;10488;50.846;4.078;2023-04-15T11:55:49;16.00;99.90
20658;DHT22;10488;50.846;4.078;2023-04-15T11:58:20;15.90;99.90
20658;DHT22;10488;50.846;4.078;2023-04-15T12:01:06;16.10;99.90
20658;DHT22;10488;50.846;4.078;2023-04-15T12:03:43;16.10;99.90
20658;DHT22;10488;50.846;4.078;2023-04-15T12:06:30;16.20;99.90
20658;DHT22;10488;50.846;4.078;2023-04-15T12:14:29;16.20;99.90
20658;DHT22;10488;50.846;4.078;2023-04-15T12:17:00;16.50;99.90
20658;DHT22;10488;50.846;4.078;2023-04-15T12:19:38;16.80;99.90
20658;DHT22;10488;50.846;4.078;2023-04-15T12:22:05;16.60;99.90
20658;DHT22;10488;50.846;4.078;2023-04-15T12:24:37;16.60;99.90
20658;DHT22;10488;50.846;4.078;2023-04-15T12:27:07;16.50;99.90
20658;DHT22;10488;50.846;4.078;2023-04-15T12:29:35;16.50;99.90
20658;DHT22;10488;50.846;4.078;2023-04-15T12:32:07;16.40;99.90
20658;DHT22;10488;50.846;4.078;2023-04-15T12:34:38;16.50;99.90
20658;DHT22;10488;50.846;4.078;2023-04-15T12:37:05;16.10;99.90
20658;DHT22;10488;50.846;4.078;2023-04-15T12:39:36;16.50;99.90
20658;DHT22;10488;50.846;4.078;2023-04-15T12:42:03;16.70;99.90
20658;DHT22;10488;50.846;4.078;2023-04-15T12:44:29;16.60;99.90
20658;DHT22;10488;50.846;4.078;2023-04-15T12:46:55;16.60;99.90
20658;DHT22;10488;50.846;4.078;2023-04-15T12:49:22;16.30;99.90
20658;DHT22;10488;50.846;4.078;2023-04-15T12:51:49;16.30;99.90
20658;DHT22;10488;50.846;4.078;2023-04-15T12:54:16;16.50;99.90
20658;DHT22;10488;50.846;4.078;2023-04-15T12:56:42;16.50;99.90
20658;DHT22;10488;50.846;4.078;2023-04-15T12:59:08;16.50;99.90
20658;DHT22;10488;50.846;4.078;2023-04-15T13:01:34;16.50;99.90
20658;DHT22;10488;50.846;4.078;2023-04-15T13:04:00;16.50;99.90
20658;DHT22;10488;50.846;4.078;2023-04-15T13:06:26;16.50;99.90
20658;DHT22;10488;50.846;4.078;2023-04-15T13:08:53;16.30;99.90
20658;DHT22;10488;50.846;4.078;2023-04-15T13:11:21;16.30;99.90
20658;DHT22;10488;50.846;4.078;2023-04-15T13:13:47;16.30;99.90
20658;DHT22;10488;50.846;4.078;2023-04-15T13:16:13;16.30;99.90
20658;DHT22;10488;50.846;4.078;2023-04-15T13:18:38;16.30;99.90
20658;DHT22;10488;50.846;4.078;2023-04-15T13:21:04;16.00;99.90
20658;DHT22;10488;50.846;4.078;2023-04-15T13:23:32;16.10;99.90
20658;DHT22;10488;50.846;4.078;2023-04-15T13:25:59;16.10;99.90
20658;DHT22;10488;50.846;4.078;2023-04-15T13:28:25;16.00;99.90
20658;DHT22;10488;50.846;4.078;2023-04-15T13:30:51;16.30;99.90
20658;DHT22;10488;50.846;4.078;2023-04-15T13:33:17;16.40;99.90
20658;DHT22;10488;50.846;4.078;2023-04-15T13:35:43;16.30;99.90
20658;DHT22;10488;50.846;4.078;2023-04-15T13:38:08;16.00;99.90
20658;DHT22;10488;50.846;4.078;2023-04-15T13:40:34;16.30;99.90
20658;DHT22;10488;50.846;4.078;2023-04-15T13:42:59;16.50;99.90
20658;DHT22;10488;50.846;4.078;2023-04-15T13:45:27;16.30;99.90
20658;DHT22;10488;50.846;4.078;2023-04-15T13:47:54;16.40;99.90
20658;DHT22;10488;50.846;4.078;2023-04-15T13:50:20;16.50;99.90
20658;DHT22;10488;50.846;4.078;2023-04-15T13:52:46;16.60;99.90
20658;DHT22;10488;50.846;4.078;2023-04-15T13:55:11;16.70;99.90
20658;DHT22;10488;50.846;4.078;2023-04-15T13:57:37;16.70;99.90
20658;DHT22;10488;50.846;4.078;2023-04-15T14:00:03;16.80;99.90
20658;DHT22;10488;50.846;4.078;2023-04-15T14:02:29;16.40;99.90
20658;DHT22;10488;50.846;4.078;2023-04-15T14:04:55;16.40;99.90
20658;DHT22;10488;50.846;4.078;2023-04-15T14:07:20;16.50;99.90
20658;DHT22;10488;50.846;4.078;2023-04-15T14:09:46;16.40;99.90
20658;DHT22;10488;50.846;4.078;2023-04-15T14:12:12;16.50;99.90
20658;DHT22;10488;50.846;4.078;2023-04-15T14:14:39;16.60;99.90
20658;DHT22;10488;50.846;4.078;2023-04-15T14:17:05;16.50;99.90
20658;DHT22;10488;50.846;4.078;2023-04-15T14:19:32;16.50;99.90
20658;DHT22;10488;50.846;4.078;2023-04-15T14:21:58;16.40;99.90
20658;DHT22;10488;50.846;4.078;2023-04-15T14:24:23;16.50;99.90
20658;DHT22;10488;50.846;4.078;2023-04-15T14:26:49;16.30;99.90
20658;DHT22;10488;50.846;4.078;2023-04-15T14:29:15;16.20;99.90
20658;DHT22;10488;50.846;4.078;2023-04-15T14:31:41;16.10;99.90
20658;DHT22;10488;50.846;4.078;2023-04-15T14:34:09;16.10;99.90
20658;DHT22;10488;50.846;4.078;2023-04-15T14:36:35;16.00;99.90
20658;DHT22;10488;50.846;4.078;2023-04-15T14:39:00;16.10;99.90
20658;DHT22;10488;50.846;4.078;2023-04-15T14:41:27;16.20;99.90
20658;DHT22;10488;50.846;4.078;2023-04-15T14:43:52;16.00;99.90
20658;DHT22;10488;50.846;4.078;2023-04-15T14:46:18;16.00;99.90
20658;DHT22;10488;50.846;4.078;2023-04-15T14:48:44;16.20;99.90
20658;DHT22;10488;50.846;4.078;2023-04-15T14:51:09;16.20;99.90
20658;DHT22;10488;50.846;4.078;2023-04-15T14:53:35;16.10;99.90
20658;DHT22;10488;50.846;4.078;2023-04-15T14:56:01;15.80;99.90
20658;DHT22;10488;50.846;4.078;2023-04-15T14:58:26;15.80;99.90
20658;DHT22;10488;50.846;4.078;2023-04-15T15:00:52;16.00;99.90
20658;DHT22;10488;50.846;4.078;2023-04-15T15:03:17;16.00;99.90
20658;DHT22;10488;50.846;4.078;2023-04-15T15:05:45;16.00;99.90
20658;DHT22;10488;50.846;4.078;2023-04-15T15:08:12;16.00;99.90
20658;DHT22;10488;50.846;4.078;2023-04-15T15:10:38;15.90;99.90
20658;DHT22;10488;50.846;4.078;2023-04-15T15:13:09;15.90;99.90
20658;DHT22;10488;50.846;4.078;2023-04-15T15:15:36;16.00;99.90
20658;DHT22;10488;50.846;4.078;2023-04-15T15:18:02;16.00;99.90
20658;DHT22;10488;50.846;4.078;2023-04-15T15:20:28;15.90;99.90
20658;DHT22;10488;50.846;4.078;2023-04-15T15:22:54;16.00;99.90
20658;DHT22;10488;50.846;4.078;2023-04-15T15:25:20;15.60;99.90
20658;DHT22;10488;50.846;4.078;2023-04-15T15:27:45;16.00;99.90
20658;DHT22;10488;50.846;4.078;2023-04-15T15:30:11;15.70;99.90
20658;DHT22;10488;50.846;4.078;2023-04-15T15:32:39;15.80;99.90
20658;DHT22;10488;50.846;4.078;2023-04-15T15:35:05;15.60;99.90
20658;DHT22;10488;50.846;4.078;2023-04-15T15:37:31;15.60;99.90
20658;DHT22;10488;50.846;4.078;2023-04-15T15:39:57;15.50;99.90
20658;DHT22;10488;50.846;4.078;2023-04-15T15:42:23;15.50;99.90
20658;DHT22;10488;50.846;4.078;2023-04-15T15:44:49;15.60;99.90
20658;DHT22;10488;50.846;4.078;2023-04-15T15:47:19;15.30;99.90
20658;DHT22;10488;50.846;4.078;2023-04-15T15:49:45;15.10;99.90
20658;DHT22;10488;50.846;4.078;2023-04-15T15:52:11;14.90;99.90
20658;DHT22;10488;50.846;4.078;2023-04-15T15:54:38;14.60;99.90
20658;DHT22;10488;50.846;4.078;2023-04-15T15:57:03;14.80;99.90